KTBN/TBN METAR and TAF weather

Enter ICAO airport designator
Station Type Date Time Source
KTBN METAR 2019/06/16 20:56 UTC NOAA

KTBN 162056Z AUTO 26004KT 10SM BKN120 26/20 A2987 RMK AO2 SLP108 60000 T02610199 55006


Station Type Date Time Source
KTBN Decoded METAR 2019/06/16 20:56 UTC NOAA

Fort Leonard Wood, MO, United States (KTBN) 37-44N 092-08W
Jun 16, 2019 - 04:56 PM EDT / 2019.06.16 2056 UTC
Wind: from the W (260 degrees) at 5 MPH (4 KT):0
Visibility: 10 mile(s):0
Sky conditions: mostly cloudy
Temperature: 79.0 F (26.1 C)
Dew Point: 67.8 F (19.9 C)
Relative Humidity: 68%
Pressure (altimeter): 29.87 in. Hg (1011 hPa)
Pressure tendency: 0.02 inches (0.6 hPa) lower than three hours ago
ob: KTBN 162056Z AUTO 26004KT 10SM BKN120 26/20 A2987 RMK AO2 SLP108 60000 T02610199 55006
cycle: 21

Station Type Date Time Source
KTBN TAF UTC NOAA

Error!

Example: see airport list